Terminal Aerodrome Forecast
Issued by NWS

Current Version | Previous Version | Text Only | Print | Product List | Glossary On
Versions: 1 2 3 4 5 6 7 8 9 10 11 12 13 14 15 16 17 18
000
FTUS41 KPHI 101400 AAB
TAFMIV
TAF AMD
KMIV 101429Z 1014/1112 VRB03KT P6SM SCT015 BKN035
      TEMPO 1014/1018 BKN015 OVC035
     FM101800 12006KT P6SM SCT045
      TEMPO 1019/1023 -SHRA OVC045
     FM110000 VRB04KT P6SM SCT045 BKN100
     FM110800 05004KT 4SM BR SCT025 BKN080=

USA.gov is the U.S. government's official web portal to all federal, state and local government web resources and services.